Time;durP1;ratioP1;P1;durP2;ratioP2;P2;SDS_P1;SDS_P2;PMS_P1;PMS_P2;Temp;Humidity;BMP_temperature;BMP_pressure;BME280_temperature;BME280_humidity;BME280_pressure;Samples;Min_cycle;Max_cycle;Signal;HPM_P1;HPM_P2
2021/12/09 00:01:36;;;;;;;22.70;14.88;;;3.40;77.80;;;2.43;64.61;93366.47;5059252;28;20731;-83
2021/12/09 00:04:10;;;;;;;24.15;15.45;;;3.40;77.80;;;2.38;64.41;93367.81;5069746;28;20219;-83
2021/12/09 00:06:39;;;;;;;22.67;14.77;;;3.40;77.80;;;2.41;64.43;93374.41;5042025;28;20239;-82
2021/12/09 00:09:12;;;;;;;23.20;15.43;;;3.40;77.90;;;2.43;64.49;93375.06;5055905;28;20302;-83
2021/12/09 00:11:45;;;;;;;25.67;15.98;;;3.40;77.90;;;2.44;64.51;93388.78;5073147;28;20681;-83
2021/12/09 00:14:19;;;;;;;24.98;15.55;;;3.30;77.90;;;2.44;64.54;93384.44;5072740;28;20208;-81
2021/12/09 00:16:47;;;;;;;25.80;16.05;;;3.40;77.90;;;2.42;64.48;93380.38;5055881;28;20203;-82
2021/12/09 00:19:16;;;;;;;25.80;15.82;;;3.40;77.90;;;2.45;64.37;93393.78;5051847;28;20234;-81
2021/12/09 00:21:43;;;;;;;24.80;15.90;;;3.40;77.80;;;2.45;64.35;93395.56;5052974;28;20238;-82
2021/12/09 00:24:11;;;;;;;25.73;15.75;;;3.40;77.90;;;2.46;64.21;93389.41;5042064;28;20218;-82
2021/12/09 00:26:39;;;;;;;23.52;15.45;;;3.40;77.90;;;2.47;64.32;93384.06;5036263;28;20246;-83
2021/12/09 00:29:07;;;;;;;26.67;15.48;;;3.40;78.70;;;2.43;64.37;93382.81;5071095;28;20215;-83
2021/12/09 00:31:34;;;;;;;22.23;14.65;;;3.40;77.90;;;2.47;64.34;93384.06;5085051;28;20200;-83
2021/12/09 00:34:03;;;;;;;24.70;15.73;;;3.40;77.90;;;2.46;64.41;93384.25;5039290;28;20314;-83
2021/12/09 00:36:42;;;;;;;22.40;15.40;;;3.40;77.90;;;2.45;64.27;93391.19;5089290;28;20202;-83
2021/12/09 00:39:11;;;;;;;24.77;15.40;;;3.40;77.90;;;2.44;64.51;93404.31;5072890;28;20227;-82
2021/12/09 00:41:39;;;;;;;24.65;14.80;;;3.40;77.90;;;2.48;64.27;93411.53;5055660;28;20664;-82
2021/12/09 00:44:07;;;;;;;24.05;14.85;;;3.40;77.90;;;2.50;64.33;93424.28;5039067;28;20469;-82
2021/12/09 00:46:35;;;;;;;22.77;15.40;;;3.40;78.00;;;2.47;64.80;93422.88;5055408;28;20199;-82
2021/12/09 00:49:02;;;;;;;22.00;15.23;;;3.40;78.00;;;2.44;64.46;93404.31;5072121;28;20215;-83
2021/12/09 00:51:30;;;;;;;22.85;15.07;;;3.50;78.00;;;2.50;64.51;93407.00;5071070;28;20257;-82
2021/12/09 00:53:57;;;;;;;22.45;15.85;;;3.40;78.00;;;2.51;64.38;93389.66;5055203;28;20750;-82
2021/12/09 00:56:25;;;;;;;22.65;14.32;;;3.40;78.10;;;2.51;64.68;93389.66;5039162;28;20717;-82
2021/12/09 00:58:53;;;;;;;23.15;14.25;;;3.50;78.10;;;2.52;64.59;93391.28;5071733;28;20240;-83
2021/12/09 01:01:21;;;;;;;24.13;15.32;;;3.40;78.10;;;2.53;64.53;93385.13;5054398;28;20653;-82
2021/12/09 01:03:50;;;;;;;22.67;15.00;;;3.40;78.10;;;2.49;64.51;93389.03;5071668;28;20257;-82
2021/12/09 01:06:17;;;;;;;22.58;14.90;;;3.40;78.10;;;2.52;64.40;93381.72;5071829;28;20198;-81
2021/12/09 01:08:45;;;;;;;22.23;14.23;;;3.50;78.20;;;2.52;64.25;93380.94;5071619;28;20226;-82
2021/12/09 01:11:14;;;;;;;21.67;13.75;;;3.50;78.20;;;2.54;64.64;93378.97;5055427;28;20246;-81
2021/12/09 01:13:42;;;;;;;22.92;15.05;;;3.50;78.10;;;2.53;64.63;93383.31;5035645;28;20207;-82
2021/12/09 01:16:11;;;;;;;21.77;14.05;;;3.50;78.20;;;2.48;64.20;93354.59;5068002;28;20193;-82
2021/12/09 01:18:40;;;;;;;25.55;15.57;;;3.50;78.10;;;2.52;64.43;93355.06;5035082;28;20219;-81
2021/12/09 01:21:10;;;;;;;27.80;15.63;;;3.50;78.10;;;2.46;64.60;93356.56;5047360;28;20211;-82
2021/12/09 01:23:38;;;;;;;24.10;14.98;;;3.50;78.10;;;2.52;64.36;93361.03;5043459;28;20191;-82
2021/12/09 01:26:06;;;;;;;22.85;15.07;;;3.50;79.00;;;2.50;64.61;93346.66;5087573;28;20298;-81
2021/12/09 01:29:01;;;;;;;22.00;14.98;;;3.50;78.10;;;2.50;64.52;93354.41;5038397;28;20232;-83
2021/12/09 01:31:35;;;;;;;21.25;14.18;;;3.50;78.10;;;2.42;64.36;93357.91;5056497;28;20286;-82
2021/12/09 01:34:04;;;;;;;24.02;15.45;;;3.40;78.10;;;2.47;64.66;93365.94;5039993;28;20222;-82
2021/12/09 01:36:34;;;;;;;22.92;14.82;;;3.40;78.10;;;2.48;64.58;93369.31;5071426;28;20195;-82
2021/12/09 01:39:05;;;;;;;23.63;15.25;;;3.40;78.10;;;2.48;64.54;93380.50;5071077;28;20277;-82
2021/12/09 01:41:32;;;;;;;24.33;15.30;;;3.40;78.10;;;2.44;64.54;93366.31;5037868;28;20210;-83
2021/12/09 01:44:00;;;;;;;24.05;15.80;;;3.50;78.20;;;2.46;64.68;93359.16;5048551;28;20212;-81
2021/12/09 01:46:27;;;;;;;26.38;16.90;;;3.50;78.30;;;2.44;64.40;93344.78;5043442;28;20742;-81
2021/12/09 01:48:54;;;;;;;25.08;16.05;;;3.40;78.10;;;2.45;64.38;93361.94;5053889;28;20504;-81
2021/12/09 01:51:21;;;;;;;27.63;16.13;;;3.40;78.10;;;2.43;64.40;93372.47;5084550;28;20699;-82
2021/12/09 01:53:50;;;;;;;23.52;15.38;;;3.40;78.20;;;2.42;64.50;93365.69;5061867;28;20573;-81
2021/12/09 01:56:27;;;;;;;27.33;15.27;;;3.40;78.20;;;2.45;64.44;93398.94;5067599;28;20195;-82
2021/12/09 01:59:00;;;;;;;22.30;14.48;;;3.40;78.30;;;2.45;64.47;93378.25;5068430;28;20249;-82
2021/12/09 02:01:27;;;;;;;23.98;14.93;;;3.40;78.20;;;2.43;64.96;93379.41;5064947;28;20200;-81
2021/12/09 02:03:56;;;;;;;22.10;14.43;;;3.40;78.30;;;2.40;64.57;93383.97;5051763;28;20268;-83
2021/12/09 02:06:25;;;;;;;21.23;14.13;;;3.40;78.30;;;2.48;64.63;93405.53;5050359;28;20899;-82
2021/12/09 02:08:52;;;;;;;24.63;14.95;;;3.40;78.30;;;2.42;64.78;93396.72;5040925;28;20220;-83
2021/12/09 02:11:20;;;;;;;21.95;14.05;;;3.40;78.30;;;2.48;64.71;93414.13;5030420;28;20655;-82
2021/12/09 02:13:54;;;;;;;24.73;15.10;;;3.40;78.30;;;2.49;64.88;93423.50;5053549;28;20195;-81
2021/12/09 02:16:21;;;;;;;23.63;14.65;;;3.40;78.30;;;2.44;65.11;93407.72;5035034;28;20199;-82
2021/12/09 02:18:49;;;;;;;23.33;15.20;;;3.40;78.30;;;2.49;64.93;93417.50;5030379;28;20755;-81
2021/12/09 02:21:20;;;;;;;22.63;15.05;;;3.40;78.30;;;2.50;64.71;93414.75;5064714;28;20215;-81
2021/12/09 02:23:56;;;;;;;21.98;14.95;;;3.50;78.40;;;2.50;64.56;93419.94;5068354;28;20191;-81
2021/12/09 02:26:29;;;;;;;23.35;15.38;;;3.40;78.40;;;2.51;64.92;93418.94;5048059;28;20593;-82
2021/12/09 02:28:58;;;;;;;24.30;15.13;;;3.50;78.40;;;2.51;64.87;93410.38;5065416;28;20219;-81
2021/12/09 02:31:27;;;;;;;22.77;15.18;;;3.40;78.30;;;2.48;64.73;93411.53;5049514;28;20642;-81
2021/12/09 02:33:56;;;;;;;23.42;14.70;;;3.50;78.50;;;2.52;64.76;93412.00;5052397;28;20314;-82
2021/12/09 02:36:24;;;;;;;21.95;13.80;;;3.50;78.40;;;2.54;65.03;93410.81;5068105;28;20222;-81
2021/12/09 02:38:51;;;;;;;23.40;15.23;;;3.60;78.50;;;2.54;64.84;93403.06;5070616;28;20222;-81
2021/12/09 02:41:23;;;;;;;22.90;14.98;;;3.50;78.50;;;2.57;64.74;93409.66;5087795;28;20711;-81
2021/12/09 02:44:01;;;;;;;21.85;14.02;;;3.50;78.50;;;2.57;64.89;93399.31;5070654;28;20210;-82
2021/12/09 02:46:35;;;;;;;23.60;14.63;;;3.50;78.50;;;2.57;64.50;93399.31;5069049;28;20199;-81
2021/12/09 02:49:16;;;;;;;19.58;13.38;;;3.50;78.40;;;2.57;64.58;93399.31;5037916;28;20591;-82
2021/12/09 02:51:44;;;;;;;21.70;14.40;;;3.50;78.50;;;2.58;64.81;93416.44;5037893;28;20229;-82
2021/12/09 02:54:16;;;;;;;19.90;13.00;;;3.50;78.50;;;2.60;64.92;93419.66;5070238;28;20307;-81
2021/12/09 02:56:47;;;;;;;20.90;13.45;;;3.50;78.50;;;2.58;64.71;93406.09;5056040;28;20239;-81
2021/12/09 02:59:14;;;;;;;20.60;13.82;;;3.50;78.50;;;2.60;64.83;93408.50;5040829;28;20263;-82
2021/12/09 03:01:57;;;;;;;21.50;13.50;;;3.50;78.50;;;2.62;64.73;93414.31;5057249;28;20306;-82
2021/12/09 03:04:39;;;;;;;22.30;14.18;;;3.50;78.60;;;2.63;64.76;93423.69;5057727;28;20215;-82
2021/12/09 03:07:26;;;;;;;23.35;14.25;;;3.60;78.70;;;2.61;64.78;93423.03;5053303;28;20546;-82
2021/12/09 03:09:59;;;;;;;21.05;13.20;;;3.50;78.50;;;2.62;64.37;93428.03;5068724;28;20231;-82
2021/12/09 03:12:35;;;;;;;20.40;12.93;;;3.50;78.50;;;2.63;64.82;93436.63;5057404;28;20196;-82
2021/12/09 03:15:06;;;;;;;20.30;12.70;;;3.60;78.60;;;2.62;65.13;93442.78;5073094;28;20218;-81
2021/12/09 03:17:35;;;;;;;20.70;13.05;;;3.60;78.50;;;2.64;64.83;93453.75;5056934;28;20284;-80
2021/12/09 03:20:02;;;;;;;18.65;12.63;;;3.60;78.50;;;2.59;64.84;93449.13;5073442;28;20223;-81
2021/12/09 03:22:31;;;;;;;18.70;12.55;;;3.50;79.20;;;2.62;64.56;93450.53;5056326;28;20203;-81
2021/12/09 03:24:58;;;;;;;16.38;11.30;;;3.60;78.40;;;2.62;64.90;93463.47;5081622;28;20285;-81
2021/12/09 03:27:25;;;;;;;16.95;11.35;;;3.60;78.50;;;2.62;65.11;93455.72;5070000;28;20204;-80
2021/12/09 03:29:52;;;;;;;15.43;10.82;;;3.50;78.50;;;2.62;65.04;93446.16;5052997;28;20231;-81
2021/12/09 03:32:22;;;;;;;15.95;10.73;;;3.60;78.50;;;2.64;64.87;93440.81;5036719;28;20274;-81
2021/12/09 03:34:50;;;;;;;13.55;9.82;;;3.50;78.50;;;2.64;64.94;93435.63;5036769;28;20303;-80
2021/12/09 03:37:23;;;;;;;13.43;10.38;;;3.60;78.50;;;2.64;64.87;93433.84;5053195;28;20289;-81
2021/12/09 03:39:53;;;;;;;16.25;9.77;;;3.50;78.50;;;2.66;64.85;93438.84;5050660;28;20285;-80
2021/12/09 03:42:26;;;;;;;14.40;9.32;;;3.60;78.50;;;2.65;64.87;93438.03;5051940;28;20298;-80
2021/12/09 03:44:55;;;;;;;11.93;8.88;;;3.60;78.60;;;2.62;64.92;93429.84;5052667;28;20697;-80
2021/12/09 03:47:26;;;;;;;13.25;8.27;;;3.60;78.60;;;2.67;64.94;93432.69;5052819;28;20203;-80
2021/12/09 03:49:54;;;;;;;13.07;9.25;;;3.60;78.60;;;2.61;64.86;93423.84;5037029;28;20226;-80
2021/12/09 03:52:22;;;;;;;12.77;9.32;;;3.60;78.60;;;2.66;64.73;93431.88;5055707;28;20221;-80
2021/12/09 03:54:49;;;;;;;12.95;8.90;;;3.60;78.50;;;2.68;65.13;93431.69;5056139;28;20219;-80
2021/12/09 03:57:16;;;;;;;10.85;7.97;;;3.60;78.60;;;2.69;65.25;93425.53;5072755;28;20191;-80
2021/12/09 03:59:44;;;;;;;11.07;8.32;;;3.60;78.60;;;2.70;64.85;93442.69;5071612;28;20750;-80
2021/12/09 04:02:11;;;;;;;12.35;8.27;;;3.60;78.70;;;2.70;64.95;93440.88;5072456;28;20203;-80
2021/12/09 04:04:39;;;;;;;11.30;8.50;;;3.60;78.60;;;2.72;64.82;93438.94;5039485;28;20635;-80
2021/12/09 04:07:07;;;;;;;13.25;8.75;;;3.60;78.70;;;2.71;64.94;93439.91;5056155;28;20637;-80
2021/12/09 04:09:35;;;;;;;12.18;8.32;;;3.60;78.60;;;2.71;64.92;93450.25;5071007;28;20215;-80
2021/12/09 04:12:03;;;;;;;12.48;8.60;;;3.60;78.70;;;2.68;65.27;93440.25;5054754;28;20274;-80
2021/12/09 04:14:32;;;;;;;12.10;8.43;;;3.60;78.60;;;2.73;65.12;93460.44;5054753;28;20292;-79
2021/12/09 04:16:59;;;;;;;9.55;7.57;;;3.60;78.60;;;2.72;65.15;93454.47;5064087;28;20203;-79
2021/12/09 04:19:26;;;;;;;10.48;7.65;;;3.60;78.50;;;2.72;65.05;93451.88;5054906;28;20220;-79
2021/12/09 04:21:54;;;;;;;12.00;8.20;;;3.60;78.50;;;2.72;64.88;93459.66;5057662;28;20195;-79
2021/12/09 04:24:22;;;;;;;9.18;7.40;;;3.60;78.50;;;2.73;65.14;93457.84;5063154;28;20218;-78
2021/12/09 04:26:54;;;;;;;9.90;7.22;;;3.70;78.50;;;2.72;64.88;93454.47;5055175;28;20231;-80
2021/12/09 04:29:22;;;;;;;10.15;7.75;;;3.70;78.50;;;2.74;64.85;93458.66;5087038;28;20264;-78
2021/12/09 04:31:51;;;;;;;10.18;7.28;;;3.60;78.50;;;2.75;64.85;93447.31;5054982;28;20191;-80
2021/12/09 04:34:20;;;;;;;9.85;7.47;;;3.60;78.50;;;2.74;64.73;93448.31;5071377;28;20222;-78
2021/12/09 04:36:47;;;;;;;9.88;7.28;;;3.60;78.50;;;2.69;64.85;93452.22;5053879;28;20208;-78
2021/12/09 04:39:15;;;;;;;10.07;8.00;;;3.70;78.50;;;2.68;64.87;93439.47;5079008;28;20247;-79
2021/12/09 04:41:43;;;;;;;9.48;7.72;;;3.60;78.50;;;2.71;64.99;93452.03;5070757;28;20734;-79
2021/12/09 04:44:11;;;;;;;8.95;7.03;;;3.60;78.50;;;2.71;64.98;93455.44;5071075;28;20288;-79
2021/12/09 04:46:40;;;;;;;9.75;7.10;;;3.60;78.40;;;2.71;65.18;93449.44;5054110;28;20272;-79
2021/12/09 04:49:08;;;;;;;9.43;7.00;;;3.60;78.40;;;2.70;65.02;93438.31;5038115;28;20219;-79
2021/12/09 04:51:36;;;;;;;9.00;7.10;;;3.60;78.50;;;2.69;64.65;93436.69;5037980;28;20206;-79
2021/12/09 04:54:04;;;;;;;8.38;6.55;;;3.60;78.50;;;2.70;64.71;93440.09;5070669;28;20302;-79
2021/12/09 04:56:33;;;;;;;8.65;6.97;;;3.60;78.50;;;2.69;64.80;93428.13;5087744;28;20195;-79
2021/12/09 04:59:02;;;;;;;7.68;6.75;;;3.60;78.50;;;2.70;65.11;93429.75;5071008;28;20249;-79
2021/12/09 05:01:30;;;;;;;8.50;6.55;;;3.60;78.50;;;2.69;64.79;93475.53;5037918;28;20680;-79
2021/12/09 05:03:57;;;;;;;8.52;6.82;;;3.60;78.50;;;2.67;64.94;93492.22;5069392;28;20551;-80
2021/12/09 05:06:24;;;;;;;8.75;6.72;;;3.60;78.40;;;2.65;64.85;93513.13;5052788;28;20249;-80
2021/12/09 05:08:52;;;;;;;8.55;7.00;;;3.60;78.40;;;2.65;64.91;93522.66;5069173;28;20252;-79
2021/12/09 05:11:47;;;;;;;9.18;6.80;;;3.60;78.40;;;2.62;64.82;93516.03;5068106;28;20207;-79
2021/12/09 05:14:18;;;;;;;8.75;6.35;;;3.60;78.40;;;2.61;64.84;93550.66;5039255;28;20292;-79
2021/12/09 05:16:50;;;;;;;8.38;6.57;;;3.60;78.30;;;2.59;64.96;93524.19;5069995;28;20278;-79
2021/12/09 05:19:18;;;;;;;7.90;6.13;;;3.60;78.40;;;2.59;64.87;93513.00;5070538;28;20626;-79
2021/12/09 05:21:46;;;;;;;7.97;6.43;;;3.50;78.30;;;2.59;65.31;93513.00;5070829;28;20723;-79
2021/12/09 05:24:15;;;;;;;8.63;6.80;;;3.60;78.50;;;2.59;64.94;93515.59;5037866;28;20219;-79
2021/12/09 05:26:49;;;;;;;8.50;6.30;;;3.60;78.40;;;2.59;64.64;93500.88;5071133;28;20222;-79
2021/12/09 05:29:21;;;;;;;8.43;6.20;;;3.50;78.40;;;2.59;65.15;93497.47;5086975;28;20215;-79
2021/12/09 05:34:45;;;;;;;8.50;6.85;;;3.50;78.40;;;2.55;64.94;93502.19;5056894;28;20273;-79
2021/12/09 05:37:18;;;;;;;12.27;8.50;;;3.50;78.40;;;2.55;65.21;93490.06;5054206;28;20207;-79
2021/12/09 05:39:47;;;;;;;18.33;10.80;;;3.50;78.40;;;2.55;65.00;93481.50;5050556;28;20323;-79
2021/12/09 05:42:17;;;;;;;12.30;8.80;;;3.50;78.40;;;2.54;64.91;93482.50;5027648;28;20245;-79
2021/12/09 05:44:44;;;;;;;11.95;8.57;;;3.50;78.40;;;2.54;64.87;93472.94;5090446;28;20235;-79
2021/12/09 05:47:12;;;;;;;11.57;8.27;;;3.50;78.40;;;2.51;64.70;93478.47;5054550;28;20198;-78
2021/12/09 05:49:46;;;;;;;18.05;11.02;;;3.50;78.30;;;2.52;64.93;93481.88;5054043;28;20698;-79
2021/12/09 05:52:15;;;;;;;12.70;9.63;;;3.50;78.40;;;2.51;64.92;93491.41;5037860;28;20296;-79
2021/12/09 05:54:42;;;;;;;9.40;7.70;;;3.50;78.40;;;2.51;65.09;93488.81;5070832;28;20604;-79
2021/12/09 05:57:10;;;;;;;9.35;7.25;;;3.50;78.40;;;2.49;64.99;93480.44;5054172;28;20298;-79
2021/12/09 05:59:40;;;;;;;9.55;7.35;;;3.50;78.40;;;2.50;65.14;93486.41;5070098;28;20307;-79
2021/12/09 06:02:16;;;;;;;9.30;6.80;;;3.50;78.50;;;2.44;65.10;93476.75;5070156;28;20195;-79
2021/12/09 06:04:45;;;;;;;8.30;6.72;;;3.50;78.50;;;2.49;65.02;93485.63;5050635;28;20693;-78
2021/12/09 06:07:14;;;;;;;9.43;6.60;;;3.50;78.50;;;2.50;65.13;93486.41;5050872;28;20659;-79
2021/12/09 06:09:41;;;;;;;7.65;6.20;;;3.50;78.50;;;2.50;64.90;93487.22;5041496;28;20211;-78
2021/12/09 06:12:09;;;;;;;12.93;9.18;;;3.40;78.40;;;2.51;64.98;93482.84;5054022;28;20658;-79
2021/12/09 06:14:36;;;;;;;9.70;7.82;;;3.40;78.50;;;2.46;64.93;93469.63;5069906;28;20242;-79
2021/12/09 06:17:04;;;;;;;11.50;7.85;;;3.40;78.50;;;2.49;64.87;93475.25;5053925;28;20381;-78
2021/12/09 06:19:31;;;;;;;9.68;8.13;;;3.40;78.40;;;2.51;64.71;93483.63;5036703;28;20805;-79
2021/12/09 06:21:58;;;;;;;10.15;8.50;;;3.40;78.40;;;2.49;64.86;93490.78;5055205;28;20218;-79
2021/12/09 06:24:25;;;;;;;10.23;8.45;;;3.40;78.40;;;2.51;65.04;93488.00;5056496;28;20635;-78
2021/12/09 06:26:52;;;;;;;9.65;7.90;;;3.40;78.40;;;2.50;64.94;93479.47;5074497;28;20830;-80
2021/12/09 06:29:19;;;;;;;8.98;7.28;;;3.40;78.50;;;2.51;64.96;93488.81;5074293;28;20226;-79
2021/12/09 06:31:47;;;;;;;10.25;7.55;;;3.40;78.40;;;2.49;65.04;93484.78;5057538;28;20206;-79
2021/12/09 06:34:14;;;;;;;9.55;7.20;;;3.50;78.50;;;2.51;64.93;93488.00;5057460;28;20787;-79
2021/12/09 06:36:42;;;;;;;9.63;7.13;;;3.50;78.50;;;2.52;65.05;93500.78;5041255;28;20214;-78
2021/12/09 06:39:12;;;;;;;9.35;7.03;;;3.50;78.60;;;2.53;65.26;93499.78;5057576;28;20760;-79
2021/12/09 06:41:40;;;;;;;8.05;6.65;;;3.50;78.50;;;2.52;64.89;93516.31;5057992;28;20273;-79
2021/12/09 06:44:08;;;;;;;8.57;6.85;;;3.50;78.50;;;2.54;65.01;93510.97;5057453;28;20361;-79
2021/12/09 06:46:35;;;;;;;6.80;5.50;;;3.50;78.60;;;2.53;64.94;93504.97;5057411;28;20249;-79
2021/12/09 06:49:04;;;;;;;5.88;5.28;;;3.50;79.40;;;2.52;65.07;93505.94;5073935;28;20211;-79
2021/12/09 06:51:32;;;;;;;5.53;4.82;;;3.40;78.50;;;2.53;65.01;93525.69;5057774;28;20210;-79
2021/12/09 06:53:59;;;;;;;5.72;5.07;;;3.50;78.50;;;2.51;64.96;93508.72;5056961;28;20222;-79
2021/12/09 06:56:34;;;;;;;5.65;4.82;;;3.50;78.50;;;2.53;65.27;93517.91;5057624;28;20207;-78
2021/12/09 06:59:01;;;;;;;4.90;4.40;;;3.40;78.40;;;2.50;64.77;93507.09;5058428;28;20542;-79
2021/12/09 07:01:37;;;;;;;5.25;4.32;;;3.40;78.40;;;2.53;65.16;93524.88;5073483;28;20223;-79
2021/12/09 07:04:08;;;;;;;4.55;4.15;;;3.50;78.60;;;2.53;65.19;93530.06;5057615;28;20227;-79
2021/12/09 07:06:37;;;;;;;4.50;4.00;;;3.50;78.50;;;2.53;65.22;93519.72;5038668;28;20276;-78
2021/12/09 07:09:05;;;;;;;4.68;4.07;;;3.50;78.60;;;2.56;65.17;93514.16;5035696;28;20224;-78
2021/12/09 07:11:38;;;;;;;4.60;3.90;;;3.50;78.60;;;2.59;65.11;93523.34;5048876;28;20676;-79
2021/12/09 07:14:06;;;;;;;4.63;4.13;;;3.50;78.60;;;2.60;65.32;93512.03;5055105;28;20225;-78
2021/12/09 07:16:33;;;;;;;4.47;4.07;;;3.50;78.60;;;2.61;64.88;93509.25;5069493;28;20206;-78
2021/12/09 07:19:00;;;;;;;4.53;4.13;;;3.50;78.60;;;2.62;65.08;93508.28;5072112;28;20221;-79
2021/12/09 07:21:27;;;;;;;4.93;3.95;;;3.50;78.60;;;2.65;64.91;93507.13;5056057;28;20268;-80
2021/12/09 07:23:55;;;;;;;4.10;3.70;;;3.50;78.70;;;2.68;65.03;93515.31;5072656;28;20215;-78
2021/12/09 07:26:22;;;;;;;4.32;3.75;;;3.50;78.70;;;2.68;65.26;93509.34;5056223;28;20335;-79
2021/12/09 07:28:49;;;;;;;5.40;4.40;;;3.60;78.80;;;2.67;64.74;93502.56;5072420;28;20268;-78
2021/12/09 07:31:16;;;;;;;4.40;4.00;;;3.60;78.80;;;2.75;65.13;93518.03;5069266;28;20502;-76
2021/12/09 07:33:44;;;;;;;4.30;3.90;;;3.60;78.70;;;2.76;64.74;93530.00;5037835;28;20210;-76
2021/12/09 07:36:11;;;;;;;4.68;4.13;;;3.60;78.70;;;2.71;65.00;93520.16;5052753;28;20204;-78
2021/12/09 07:38:40;;;;;;;4.75;4.20;;;3.60;78.70;;;2.79;64.92;93523.66;5052730;28;20203;-78
2021/12/09 07:41:08;;;;;;;5.20;4.30;;;3.60;78.70;;;2.81;65.27;93530.25;5070958;28;20636;-76
2021/12/09 07:43:35;;;;;;;4.55;4.00;;;3.70;78.70;;;2.82;64.99;93542.22;5035628;28;20196;-78
2021/12/09 07:46:02;;;;;;;4.20;3.80;;;3.70;78.70;;;2.83;64.87;93535.25;5069691;28;20212;-77
2021/12/09 07:48:30;;;;;;;4.75;4.18;;;3.70;78.70;;;2.85;65.00;93528.13;5052102;28;20219;-78
2021/12/09 07:51:00;;;;;;;5.70;4.45;;;3.70;78.70;;;2.85;64.97;93556.59;5053851;28;20223;-77
2021/12/09 07:53:27;;;;;;;4.68;4.20;;;3.70;78.60;;;2.85;64.92;93538.47;5077292;28;20242;-78
2021/12/09 07:55:55;;;;;;;5.28;4.70;;;3.80;78.60;;;2.85;64.73;93551.41;5051657;28;20253;-78
2021/12/09 07:58:22;;;;;;;5.40;4.43;;;3.80;78.60;;;2.87;64.91;93560.63;5037692;28;20304;-77
2021/12/09 08:00:50;;;;;;;5.30;4.68;;;3.80;78.60;;;2.88;64.91;93561.41;5053189;28;20221;-78
2021/12/09 08:03:17;;;;;;;5.18;4.38;;;3.70;78.50;;;2.87;64.65;93549.47;5054538;28;20226;-77
2021/12/09 08:05:47;;;;;;;5.70;4.57;;;3.80;78.60;;;2.91;64.96;93562.88;5070650;28;20215;-77
2021/12/09 08:08:15;;;;;;;6.60;5.10;;;3.80;78.60;;;2.92;64.94;93562.69;5075769;28;20200;-78
2021/12/09 08:10:42;;;;;;;5.50;4.47;;;3.80;79.40;;;2.91;64.90;93550.69;5071386;28;20227;-78
2021/12/09 08:13:12;;;;;;;6.90;5.10;;;3.80;78.60;;;2.95;64.90;93554.53;5086672;28;20199;-77
2021/12/09 08:15:45;;;;;;;6.47;5.15;;;3.80;78.60;;;2.95;64.77;93559.72;5037569;28;20301;-78
2021/12/09 08:20:48;;;;;;;6.07;5.25;;;3.90;78.70;;;3.03;64.73;93579.56;5069898;28;20338;-79
2021/12/09 08:23:16;;;;;;;7.18;5.75;;;3.90;78.60;;;3.03;64.99;93588.13;5078842;28;20203;-79
2021/12/09 08:25:44;;;;;;;6.07;5.47;;;3.90;78.60;;;3.03;64.80;93577.75;5054013;28;20215;-78
2021/12/09 08:28:12;;;;;;;7.40;5.97;;;3.90;78.60;;;3.04;64.64;93565.63;5069507;28;20253;-79
2021/12/09 08:30:40;;;;;;;6.50;5.80;;;3.90;78.60;;;3.03;64.53;93588.13;5052221;28;20212;-79
2021/12/09 08:33:20;;;;;;;8.05;6.95;;;3.90;78.50;;;3.07;64.80;93591.16;5055004;28;20199;-79
2021/12/09 08:35:48;;;;;;;8.98;7.07;;;3.90;78.50;;;3.09;64.62;93589.22;5048986;28;20685;-79
2021/12/09 08:38:16;;;;;;;9.05;7.13;;;3.90;78.50;;;3.08;64.53;93586.81;5033293;28;20211;-79
2021/12/09 08:40:45;;;;;;;7.88;6.85;;;4.00;78.40;;;3.08;64.45;93587.59;5069211;28;20223;-79
2021/12/09 08:43:13;;;;;;;7.75;6.63;;;4.00;78.40;;;3.07;64.65;93598.94;5054147;28;20203;-80
2021/12/09 08:45:40;;;;;;;8.88;7.03;;;3.90;78.30;;;3.09;64.80;93609.94;5051923;28;20310;-80
2021/12/09 08:48:08;;;;;;;8.13;6.72;;;4.00;78.40;;;3.10;65.06;93593.41;5037800;28;20203;-80
2021/12/09 08:50:37;;;;;;;9.13;7.28;;;4.00;78.40;;;3.12;64.75;93595.81;5053255;28;20614;-80
2021/12/09 08:53:09;;;;;;;8.95;7.28;;;4.00;78.40;;;3.14;64.68;93605.00;5052452;28;20264;-80
2021/12/09 08:55:37;;;;;;;9.32;7.95;;;4.00;78.50;;;3.15;64.61;93616.16;5049807;28;20243;-80
2021/12/09 08:58:05;;;;;;;8.73;7.30;;;4.00;78.40;;;3.16;64.69;93610.00;5038762;28;20204;-80
2021/12/09 09:00:34;;;;;;;10.32;7.88;;;4.00;78.40;;;3.16;64.57;93595.28;5066233;28;20297;-80
2021/12/09 09:03:03;;;;;;;10.75;8.38;;;4.00;78.40;;;3.15;64.48;93598.03;5068272;28;20191;-79
2021/12/09 09:05:32;;;;;;;9.30;7.65;;;4.00;78.50;;;3.22;64.68;93617.06;5037655;28;20220;-79
2021/12/09 09:08:01;;;;;;;10.35;8.52;;;4.00;78.50;;;3.24;64.71;93602.16;5054445;28;20195;-80
2021/12/09 09:10:31;;;;;;;10.25;8.05;;;4.10;78.60;;;3.26;64.65;93617.53;5071048;28;20276;-81
2021/12/09 09:12:58;;;;;;;8.80;7.75;;;4.10;78.50;;;3.29;64.60;93628.34;5054828;28;20211;-80
2021/12/09 09:15:29;;;;;;;10.50;8.00;;;4.10;78.50;;;3.33;64.81;93606.28;5054330;28;20582;-80
2021/12/09 09:17:58;;;;;;;10.52;8.02;;;4.10;78.60;;;3.39;64.75;93604.72;5070770;28;20219;-80
2021/12/09 09:20:29;;;;;;;10.35;7.68;;;4.20;78.80;;;3.46;64.98;93618.59;5087486;28;20215;-79
2021/12/09 09:22:57;;;;;;;9.57;7.88;;;4.20;78.80;;;3.56;64.62;93620.09;5069998;28;20580;-79
2021/12/09 09:25:29;;;;;;;9.18;7.75;;;4.30;78.80;;;3.60;64.56;93610.97;5037113;28;20226;-79
2021/12/09 09:28:00;;;;;;;8.65;7.30;;;4.40;78.80;;;3.65;64.70;93611.22;5086291;28;20191;-79
2021/12/09 09:30:35;;;;;;;9.10;7.28;;;4.40;78.80;;;3.68;64.52;93603.88;5073080;28;20359;-80
2021/12/09 09:33:08;;;;;;;9.52;7.47;;;4.40;78.60;;;3.73;64.72;93599.97;5078098;28;20683;-80
2021/12/09 09:35:37;;;;;;;9.45;7.47;;;4.40;78.60;;;3.76;64.70;93609.97;5054236;28;20269;-80
2021/12/09 09:38:06;;;;;;;10.07;7.70;;;4.50;78.70;;;3.79;64.50;93610.41;5037410;28;20195;-80
2021/12/09 09:40:59;;;;;;;9.15;7.30;;;4.50;78.60;;;3.81;64.53;93613.63;5050918;28;20320;-81
2021/12/09 09:46:25;;;;;;;9.52;7.63;;;4.60;78.60;;;3.85;64.45;93569.97;5056186;28;20206;-80
2021/12/09 09:48:55;;;;;;;10.00;8.32;;;4.60;78.40;;;3.89;64.69;93602.34;5054403;28;20295;-79
2021/12/09 09:51:26;;;;;;;9.77;8.02;;;4.60;78.60;;;3.96;64.69;93620.56;5085822;28;20290;-80
2021/12/09 09:53:53;;;;;;;10.82;8.55;;;4.60;78.60;;;4.02;64.90;93583.53;5053719;28;20219;-80
2021/12/09 09:56:24;;;;;;;11.57;8.50;;;4.70;78.70;;;4.03;64.27;93551.41;5055987;28;20206;-80
2021/12/09 09:59:00;;;;;;;10.05;8.38;;;4.70;78.60;;;4.10;63.93;93547.09;5054942;28;20196;-80
2021/12/09 10:01:31;;;;;;;10.70;7.90;;;4.80;78.70;;;4.16;64.41;93556.72;5074183;28;20621;-82
2021/12/09 10:04:20;;;;;;;10.77;8.80;;;4.80;78.60;;;4.19;64.18;93565.09;5058403;28;20219;-82
2021/12/09 10:06:48;;;;;;;11.60;8.60;;;4.80;78.30;;;4.14;64.09;93566.47;5060648;28;20232;-82
2021/12/09 10:09:16;;;;;;;10.90;8.45;;;4.90;78.30;;;4.16;64.18;93574.88;5072614;28;20258;-82
2021/12/09 10:11:45;;;;;;;11.18;9.00;;;4.90;78.20;;;4.09;64.15;93568.00;5040779;28;20199;-82
2021/12/09 10:14:19;;;;;;;11.38;8.90;;;4.90;78.10;;;4.16;64.19;93558.50;5039958;28;20226;-85
2021/12/09 10:17:26;;;;;;;10.63;8.40;;;4.90;78.10;;;4.16;64.10;93555.91;5091167;28;20199;-82
2021/12/09 10:20:09;;;;;;;11.05;8.15;;;5.00;78.00;;;4.18;64.41;93556.53;5067542;28;20207;-83
2021/12/09 10:22:37;;;;;;;15.98;10.18;;;5.00;78.40;;;4.24;64.31;93558.38;5051866;28;20222;-83
2021/12/09 10:25:20;;;;;;;16.42;11.60;;;5.00;78.40;;;4.28;64.41;93572.56;5057477;28;20207;-82
2021/12/09 10:28:01;;;;;;;19.52;12.85;;;5.00;78.00;;;4.30;63.94;93585.38;5091743;28;20199;-82
2021/12/09 10:30:29;;;;;;;17.98;12.50;;;5.10;78.00;;;4.32;64.06;93602.38;5067874;28;20218;-82
2021/12/09 10:33:02;;;;;;;21.80;14.25;;;5.10;78.20;;;4.30;63.99;93613.94;5062273;28;20229;-83
2021/12/09 10:35:30;;;;;;;20.15;13.50;;;5.10;77.90;;;4.36;63.95;93614.97;5074628;28;20646;-82
2021/12/09 10:38:01;;;;;;;20.70;13.02;;;5.10;78.00;;;4.30;64.09;93601.75;5082195;28;20589;-82
2021/12/09 10:40:30;;;;;;;18.88;12.80;;;5.10;78.00;;;4.36;63.79;93589.00;5065614;28;20219;-84
2021/12/09 10:43:03;;;;;;;17.38;11.60;;;5.10;78.00;;;4.40;64.29;93593.66;5057708;28;20588;-82
2021/12/09 10:45:35;;;;;;;19.70;12.95;;;5.20;77.90;;;4.39;64.04;93594.63;5073469;28;20212;-82